createdAt,value
2022-08-03T00:00:39.553Z,58.98
2022-08-03T00:03:09.483Z,58.85
2022-08-03T00:05:38.380Z,58.86
2022-08-03T00:08:07.167Z,59.14
2022-08-03T00:10:35.911Z,59.24
2022-08-03T00:13:04.524Z,59.21
2022-08-03T00:15:33.036Z,58.99
2022-08-03T00:18:01.628Z,59.18
2022-08-03T00:20:31.442Z,59.04
2022-08-03T00:22:59.880Z,58.98
2022-08-03T00:25:28.495Z,59.18
2022-08-03T00:27:56.959Z,59.49
2022-08-03T00:30:26.903Z,59.58
2022-08-03T00:32:59.948Z,59.80
2022-08-03T00:35:49.213Z,59.76
2022-08-03T00:38:19.388Z,59.76
2022-08-03T00:40:47.965Z,59.91
2022-08-03T00:43:16.450Z,59.83
2022-08-03T00:45:45.216Z,60.23
2022-08-03T00:48:32.202Z,60.35
2022-08-03T00:51:03.728Z,60.46
2022-08-03T00:53:35.797Z,60.58
2022-08-03T00:56:04.401Z,60.89
2022-08-03T00:58:32.929Z,61.09
2022-08-03T01:01:01.513Z,61.06
2022-08-03T01:03:30.021Z,61.08
2022-08-03T01:06:05.154Z,61.31
2022-08-03T01:08:43.885Z,61.46
2022-08-03T01:11:20.367Z,61.42
2022-08-03T01:14:01.364Z,61.18
2022-08-03T01:16:56.900Z,61.00
2022-08-03T01:19:39.987Z,61.03
2022-08-03T01:22:24.379Z,61.06
2022-08-03T01:25:02.473Z,60.88
2022-08-03T01:27:36.643Z,60.94
2022-08-03T01:30:09.300Z,61.03
2022-08-03T01:33:03.099Z,61.04
2022-08-03T01:35:38.799Z,61.03
2022-08-03T01:38:12.950Z,61.06
2022-08-03T01:40:42.966Z,61.33
2022-08-03T01:43:55.494Z,61.36
2022-08-03T01:46:09.968Z,61.03
2022-08-03T01:48:40.343Z,60.96
2022-08-03T01:51:10.591Z,61.23
2022-08-03T01:53:42.806Z,61.29
2022-08-03T01:56:12.959Z,61.24
2022-08-03T01:58:43.106Z,61.36
2022-08-03T02:01:14.818Z,61.41
2022-08-03T02:03:59.478Z,61.48
2022-08-03T02:06:59.814Z,61.47
2022-08-03T02:09:24.727Z,61.47
2022-08-03T02:11:56.000Z,61.54
2022-08-03T02:14:25.032Z,61.87
2022-08-03T02:16:57.075Z,61.89
2022-08-03T02:19:27.138Z,61.98
2022-08-03T02:22:01.076Z,62.27
2022-08-03T02:24:30.653Z,61.87
2022-08-03T02:27:02.263Z,61.85
2022-08-03T02:29:39.103Z,62.02
2022-08-03T02:32:18.396Z,62.20
2022-08-03T02:34:52.729Z,62.32
2022-08-03T02:37:25.094Z,62.37
2022-08-03T02:39:59.051Z,62.62
2022-08-03T02:42:29.739Z,62.73
2022-08-03T02:45:02.055Z,62.83
2022-08-03T02:47:53.396Z,62.84
2022-08-03T02:50:24.579Z,62.49
2022-08-03T02:52:54.186Z,62.50
2022-08-03T02:55:24.950Z,62.64
2022-08-03T02:57:54.847Z,62.89
2022-08-03T03:00:28.135Z,63.10
2022-08-03T03:03:01.094Z,63.17
2022-08-03T03:05:53.197Z,63.32
2022-08-03T03:08:25.815Z,63.28
2022-08-03T03:10:56.838Z,63.02
2022-08-03T03:13:26.507Z,63.39
2022-08-03T03:15:57.710Z,63.62
2022-08-03T03:18:29.689Z,63.52
2022-08-03T03:21:00.083Z,63.61
2022-08-03T03:23:30.033Z,63.54
2022-08-03T03:26:00.214Z,63.51
2022-08-03T03:28:29.735Z,63.32
2022-08-03T03:30:58.643Z,63.53
2022-08-03T03:33:28.776Z,63.43
2022-08-03T03:35:58.818Z,63.68
2022-08-03T03:38:27.389Z,63.86
2022-08-03T03:40:56.505Z,64.12
2022-08-03T03:43:25.951Z,63.80
2022-08-03T03:45:56.129Z,63.87
2022-08-03T03:48:26.448Z,64.01
2022-08-03T03:50:57.360Z,64.34
2022-08-03T03:53:26.365Z,64.58
2022-08-03T03:55:59.518Z,64.39
2022-08-03T03:58:33.240Z,64.07
2022-08-03T04:01:02.354Z,63.86
2022-08-03T04:03:31.094Z,63.87
2022-08-03T04:06:18.567Z,63.81
2022-08-03T04:09:04.836Z,63.66
2022-08-03T04:11:39.218Z,64.05
2022-08-03T04:14:12.190Z,63.77
2022-08-03T04:16:45.117Z,63.81
2022-08-03T04:19:23.140Z,63.70
2022-08-03T04:21:58.806Z,63.79
2022-08-03T04:24:31.737Z,63.68
2022-08-03T04:27:02.090Z,63.75
2022-08-03T04:29:32.214Z,63.84
2022-08-03T04:32:03.130Z,63.98
2022-08-03T04:34:32.257Z,64.11
2022-08-03T04:37:07.145Z,63.97
2022-08-03T04:39:38.258Z,64.03
2022-08-03T04:42:09.341Z,63.99
2022-08-03T04:44:41.093Z,63.85
2022-08-03T04:47:09.703Z,63.66
2022-08-03T04:49:39.327Z,63.63
2022-08-03T04:52:10.963Z,63.60
2022-08-03T04:54:48.788Z,63.65
2022-08-03T04:57:22.101Z,63.75
2022-08-03T04:59:58.259Z,63.61
2022-08-03T05:02:31.331Z,63.59
2022-08-03T05:05:00.119Z,63.79
2022-08-03T05:07:35.538Z,63.65
2022-08-03T05:10:11.711Z,63.73
2022-08-03T05:12:46.887Z,63.54
2022-08-03T05:15:15.916Z,63.79
2022-08-03T05:17:44.810Z,63.82
2022-08-03T05:20:13.833Z,63.72
2022-08-03T05:22:48.026Z,63.77
2022-08-03T05:25:16.909Z,63.74
2022-08-03T05:27:47.914Z,63.77
2022-08-03T05:30:31.024Z,63.77
2022-08-03T05:33:04.561Z,63.84
2022-08-03T05:36:02.061Z,63.83
2022-08-03T05:38:34.387Z,63.91
2022-08-03T05:41:21.558Z,63.78
2022-08-03T05:43:53.739Z,63.79
2022-08-03T05:46:22.726Z,63.64
2022-08-03T05:48:51.338Z,63.64
2022-08-03T05:51:19.760Z,63.59
2022-08-03T05:53:49.643Z,63.53
2022-08-03T05:56:18.135Z,63.54
2022-08-03T05:58:48.000Z,63.49
2022-08-03T06:01:17.165Z,63.37
2022-08-03T06:03:46.118Z,63.28
2022-08-03T06:06:15.073Z,63.21
2022-08-03T06:08:44.735Z,63.19
2022-08-03T06:11:14.619Z,63.16
2022-08-03T06:13:43.470Z,63.07
2022-08-03T06:16:11.978Z,62.80
2022-08-03T06:18:41.151Z,62.79
2022-08-03T06:21:15.336Z,62.87
2022-08-03T06:23:54.499Z,62.77
2022-08-03T06:26:27.761Z,62.77
2022-08-03T06:28:56.842Z,62.70
2022-08-03T06:31:33.054Z,62.83
2022-08-03T06:34:33.405Z,62.82
2022-08-03T06:36:58.449Z,62.71
2022-08-03T06:39:30.614Z,62.54
2022-08-03T06:42:00.485Z,62.36
2022-08-03T06:44:28.971Z,62.20
2022-08-03T06:46:57.606Z,61.90
2022-08-03T06:49:26.172Z,61.65
2022-08-03T06:52:05.802Z,61.83
2022-08-03T06:54:37.226Z,61.81
2022-08-03T06:57:09.753Z,61.56
2022-08-03T07:00:09.188Z,61.36
2022-08-03T07:02:28.531Z,61.06
2022-08-03T07:04:57.815Z,61.16
2022-08-03T07:07:26.407Z,61.07
2022-08-03T07:09:57.527Z,60.84
2022-08-03T07:12:29.586Z,60.59
2022-08-03T07:15:01.187Z,60.55
2022-08-03T07:17:32.212Z,60.45
2022-08-03T07:20:01.586Z,60.66
2022-08-03T07:22:30.444Z,60.69
2022-08-03T07:24:59.217Z,60.51
2022-08-03T07:27:30.400Z,60.33
2022-08-03T07:30:00.010Z,60.08
2022-08-03T07:32:31.484Z,60.11
2022-08-03T07:35:01.396Z,60.07
2022-08-03T07:37:31.199Z,59.73
2022-08-03T07:40:00.727Z,59.81
2022-08-03T07:42:30.927Z,59.85
2022-08-03T07:45:00.032Z,59.80
2022-08-03T07:47:35.483Z,59.64
2022-08-03T07:50:06.562Z,59.28
2022-08-03T07:52:50.769Z,58.91
2022-08-03T07:55:20.857Z,58.76
2022-08-03T07:58:01.183Z,59.13
2022-08-03T08:00:30.444Z,58.73
2022-08-03T08:02:59.069Z,58.89
2022-08-03T08:05:27.984Z,58.82
2022-08-03T08:07:57.184Z,58.62
2022-08-03T08:10:25.863Z,58.45
2022-08-03T08:12:56.229Z,58.61
2022-08-03T08:15:24.956Z,58.21
2022-08-03T08:17:54.957Z,58.22
2022-08-03T08:20:30.714Z,57.91
2022-08-03T08:23:02.714Z,57.90
2022-08-03T08:25:32.305Z,57.48
2022-08-03T08:28:31.517Z,57.32
2022-08-03T08:30:52.950Z,57.39
2022-08-03T08:33:23.536Z,57.56
2022-08-03T08:35:54.234Z,57.39
2022-08-03T08:38:23.647Z,57.53
2022-08-03T08:40:52.752Z,57.78
2022-08-03T08:43:22.852Z,57.65
2022-08-03T08:45:53.549Z,57.66
2022-08-03T08:48:27.060Z,57.46
2022-08-03T08:50:56.812Z,57.31
2022-08-03T08:53:29.147Z,56.68
2022-08-03T08:56:01.489Z,56.49
2022-08-03T08:58:35.977Z,56.57
2022-08-03T09:01:05.326Z,56.36
2022-08-03T09:03:34.609Z,56.30
2022-08-03T09:06:03.524Z,55.93
2022-08-03T09:08:33.571Z,55.82
2022-08-03T09:11:02.963Z,55.66
2022-08-03T09:13:34.809Z,55.64
2022-08-03T09:16:14.561Z,55.34
2022-08-03T09:18:44.243Z,55.43
2022-08-03T09:21:37.274Z,55.43
2022-08-03T09:24:16.574Z,55.65
2022-08-03T09:26:54.586Z,55.57
2022-08-03T09:29:24.583Z,55.71
2022-08-03T09:32:02.525Z,55.71
2022-08-03T09:34:31.440Z,55.41
2022-08-03T09:36:59.981Z,54.91
2022-08-03T09:39:41.239Z,54.55
2022-08-03T09:42:14.715Z,54.20
2022-08-03T09:44:46.458Z,53.81
2022-08-03T09:47:16.700Z,53.84
2022-08-03T09:49:59.039Z,53.48
2022-08-03T09:52:50.019Z,53.56
2022-08-03T09:56:32.861Z,53.59
2022-08-03T09:58:12.768Z,53.03
2022-08-03T10:00:56.977Z,52.67
2022-08-03T10:03:27.495Z,52.15
2022-08-03T10:05:59.833Z,51.88
2022-08-03T10:08:28.700Z,51.73
2022-08-03T10:10:58.736Z,51.58
2022-08-03T10:13:27.495Z,51.23
2022-08-03T10:16:21.711Z,50.56
2022-08-03T10:18:49.791Z,50.27
2022-08-03T10:21:20.823Z,50.01
2022-08-03T10:23:50.878Z,49.67
2022-08-03T10:26:23.677Z,49.51
2022-08-03T10:28:56.521Z,49.23
2022-08-03T10:31:27.488Z,48.91
2022-08-03T10:33:59.155Z,48.52
2022-08-03T10:36:31.583Z,47.85
2022-08-03T10:39:02.429Z,46.98
2022-08-03T10:41:36.249Z,46.63
2022-08-03T10:44:07.908Z,46.39
2022-08-03T10:46:44.691Z,46.39
2022-08-03T10:49:15.238Z,46.82
2022-08-03T10:51:45.642Z,45.99
2022-08-03T10:54:59.766Z,45.43
2022-08-03T10:57:45.852Z,45.28
2022-08-03T11:00:19.075Z,45.42
2022-08-03T11:03:07.380Z,45.01
2022-08-03T11:05:38.871Z,44.87
2022-08-03T11:08:25.268Z,44.21
2022-08-03T11:10:55.275Z,44.42
2022-08-03T11:13:25.058Z,43.75
2022-08-03T11:16:01.749Z,43.09
2022-08-03T11:18:33.772Z,42.86
2022-08-03T11:21:02.627Z,42.46
2022-08-03T11:24:04.334Z,41.72
2022-08-03T11:26:34.307Z,41.38
2022-08-03T11:29:27.964Z,41.28
2022-08-03T11:31:56.633Z,41.56
2022-08-03T11:34:27.055Z,40.98
2022-08-03T11:37:22.605Z,41.21
2022-08-03T11:39:54.488Z,40.87
2022-08-03T11:42:48.062Z,39.87
2022-08-03T11:45:16.569Z,39.25
2022-08-03T11:47:51.119Z,38.80
2022-08-03T11:50:22.167Z,38.58
2022-08-03T11:52:51.427Z,38.47
2022-08-03T11:55:22.141Z,38.03
2022-08-03T11:59:01.901Z,37.17
2022-08-03T12:00:40.599Z,36.60
2022-08-03T12:03:11.960Z,36.54
2022-08-03T12:05:51.167Z,36.32
2022-08-03T12:08:32.396Z,36.48
2022-08-03T12:11:05.752Z,36.45
2022-08-03T12:14:36.707Z,36.27
2022-08-03T12:16:30.687Z,36.14
2022-08-03T12:19:00.628Z,36.15
2022-08-03T12:21:31.296Z,36.73
2022-08-03T12:24:00.889Z,36.06
2022-08-03T12:26:30.430Z,36.42
2022-08-03T12:28:58.983Z,36.15
2022-08-03T12:31:27.657Z,35.83
2022-08-03T12:33:58.885Z,35.22
2022-08-03T12:36:28.680Z,35.23
2022-08-03T12:39:00.719Z,34.85
2022-08-03T12:41:35.307Z,34.27
2022-08-03T12:44:05.941Z,33.80
2022-08-03T12:46:36.062Z,33.63
2022-08-03T12:49:08.383Z,33.53
2022-08-03T12:51:39.939Z,34.55
2022-08-03T12:54:10.468Z,34.54
2022-08-03T12:56:58.787Z,34.06
2022-08-03T12:59:32.504Z,33.48
2022-08-03T13:02:09.512Z,33.00
2022-08-03T13:04:38.417Z,32.93
2022-08-03T13:07:14.352Z,32.43
2022-08-03T13:09:47.161Z,32.41
2022-08-03T13:12:17.167Z,32.45
2022-08-03T13:14:48.692Z,32.54
2022-08-03T13:17:18.190Z,31.90
2022-08-03T13:19:48.633Z,32.23
2022-08-03T13:22:19.622Z,32.01
2022-08-03T13:24:51.472Z,31.55
2022-08-03T13:28:02.022Z,31.48
2022-08-03T13:30:10.259Z,31.81
2022-08-03T13:32:38.876Z,31.64
2022-08-03T13:35:08.833Z,31.72
2022-08-03T13:37:38.745Z,31.13
2022-08-03T13:40:11.601Z,30.74
2022-08-03T13:42:40.423Z,30.57
2022-08-03T13:45:10.491Z,30.08
2022-08-03T13:47:39.015Z,30.17
2022-08-03T13:50:08.155Z,29.83
2022-08-03T13:52:37.202Z,29.89
2022-08-03T13:55:09.295Z,29.99
2022-08-03T13:58:05.705Z,29.83
2022-08-03T14:00:29.352Z,29.97
2022-08-03T14:03:13.846Z,29.49
2022-08-03T14:05:43.030Z,30.06
2022-08-03T14:08:12.000Z,30.12
2022-08-03T14:10:44.233Z,31.05
2022-08-03T14:13:16.881Z,31.18
2022-08-03T14:15:49.936Z,31.03
2022-08-03T14:18:27.705Z,30.76
2022-08-03T14:21:07.299Z,30.35
2022-08-03T14:23:38.089Z,29.99
2022-08-03T14:26:09.939Z,29.88
2022-08-03T14:28:38.465Z,29.26
2022-08-03T14:31:08.422Z,29.08
2022-08-03T14:33:55.423Z,29.27
2022-08-03T14:36:24.279Z,29.18
2022-08-03T14:38:52.840Z,29.50
2022-08-03T14:41:22.847Z,29.56
2022-08-03T14:44:02.000Z,29.23
2022-08-03T14:46:32.159Z,29.92
2022-08-03T14:50:28.893Z,30.37
2022-08-03T14:51:53.826Z,29.70
2022-08-03T14:54:23.653Z,29.71
2022-08-03T14:56:53.718Z,30.12
2022-08-03T14:59:22.311Z,29.93
2022-08-03T15:02:02.108Z,29.71
2022-08-03T15:04:32.280Z,29.21
2022-08-03T15:07:00.788Z,29.26
2022-08-03T15:09:29.396Z,28.99
2022-08-03T15:11:59.337Z,29.03
2022-08-03T15:14:28.338Z,28.46
2022-08-03T15:17:01.665Z,28.41
2022-08-03T15:20:00.985Z,28.32
2022-08-03T15:22:20.767Z,28.64
2022-08-03T15:24:53.872Z,28.59
2022-08-03T15:27:24.277Z,29.07
2022-08-03T15:30:09.021Z,29.02
2022-08-03T15:32:38.820Z,29.02
2022-08-03T15:35:07.806Z,29.06
2022-08-03T15:37:36.807Z,28.77
2022-08-03T15:40:06.656Z,29.15
2022-08-03T15:42:36.496Z,28.97
2022-08-03T15:45:05.607Z,29.56
2022-08-03T15:47:34.116Z,29.26
2022-08-03T15:50:06.542Z,29.58
2022-08-03T15:52:38.139Z,29.20
2022-08-03T15:55:07.648Z,28.91
2022-08-03T15:59:04.339Z,29.38
2022-08-03T16:00:33.508Z,28.80
2022-08-03T16:03:02.727Z,28.79
2022-08-03T16:05:31.296Z,29.46
2022-08-03T16:08:03.805Z,29.50
2022-08-03T16:10:33.812Z,29.25
2022-08-03T16:13:03.820Z,29.29
2022-08-03T16:15:32.398Z,29.76
2022-08-03T16:18:07.241Z,29.20
2022-08-03T16:20:35.824Z,29.64
2022-08-03T16:23:10.333Z,29.12
2022-08-03T16:25:40.463Z,28.96
2022-08-03T16:28:14.611Z,29.48
2022-08-03T16:30:45.244Z,29.08
2022-08-03T16:33:17.451Z,29.04
2022-08-03T16:35:46.780Z,29.02
2022-08-03T16:38:18.880Z,29.19
2022-08-03T16:40:51.613Z,29.58
2022-08-03T16:43:23.193Z,29.16
2022-08-03T16:45:52.228Z,28.89
2022-08-03T16:48:21.171Z,29.09
2022-08-03T16:50:49.720Z,29.22
2022-08-03T16:53:18.734Z,29.42
2022-08-03T16:56:06.715Z,29.51
2022-08-03T16:58:42.394Z,29.53
2022-08-03T17:01:22.122Z,29.26
2022-08-03T17:04:01.698Z,29.90
2022-08-03T17:06:35.987Z,30.21
2022-08-03T17:09:08.739Z,29.39
2022-08-03T17:11:43.961Z,29.74
2022-08-03T17:14:14.803Z,30.21
2022-08-03T17:16:52.939Z,29.78
2022-08-03T17:19:24.922Z,30.12
2022-08-03T17:22:01.234Z,29.72
2022-08-03T17:24:33.343Z,29.43
2022-08-03T17:27:04.170Z,29.57
2022-08-03T17:29:47.367Z,29.76
2022-08-03T17:32:19.684Z,30.08
2022-08-03T17:34:50.258Z,29.75
2022-08-03T17:37:49.995Z,29.95
2022-08-03T17:40:17.487Z,30.35
2022-08-03T17:42:50.671Z,30.72
2022-08-03T17:45:21.306Z,30.51
2022-08-03T17:47:57.579Z,30.87
2022-08-03T17:50:47.961Z,30.84
2022-08-03T17:53:23.616Z,31.02
2022-08-03T17:56:38.702Z,30.95
2022-08-03T17:59:08.559Z,31.26
2022-08-03T18:02:12.238Z,31.35
2022-08-03T18:04:55.520Z,31.77
2022-08-03T18:07:41.059Z,31.99
2022-08-03T18:10:11.383Z,31.98
2022-08-03T18:12:52.218Z,32.04
2022-08-03T18:15:27.952Z,32.02
2022-08-03T18:18:10.404Z,32.74
2022-08-03T18:20:41.969Z,33.03
2022-08-03T18:23:24.676Z,33.26
2022-08-03T18:26:02.803Z,33.29
2022-08-03T18:28:34.978Z,33.62
2022-08-03T18:31:05.665Z,33.71
2022-08-03T18:34:32.218Z,34.07
2022-08-03T18:36:31.124Z,34.24
2022-08-03T18:39:02.341Z,34.47
2022-08-03T18:41:34.794Z,34.88
2022-08-03T18:44:08.283Z,35.40
2022-08-03T18:47:07.172Z,35.66
2022-08-03T18:49:49.540Z,35.84
2022-08-03T18:52:27.575Z,35.61
2022-08-03T18:55:11.117Z,36.35
2022-08-03T18:58:05.209Z,36.88
2022-08-03T19:00:42.656Z,37.98
2022-08-03T19:03:25.034Z,39.24
2022-08-03T19:06:19.966Z,40.08
2022-08-03T19:08:55.679Z,41.44
2022-08-03T19:12:26.140Z,41.75
2022-08-03T19:14:28.429Z,41.99
2022-08-03T19:17:05.786Z,42.70
2022-08-03T19:19:44.035Z,42.82
2022-08-03T19:22:15.949Z,43.07
2022-08-03T19:24:47.867Z,43.26
2022-08-03T19:27:17.387Z,43.38
2022-08-03T19:29:58.906Z,43.52
2022-08-03T19:32:30.295Z,43.36
2022-08-03T19:35:00.378Z,43.51
2022-08-03T19:37:33.261Z,43.45
2022-08-03T19:40:10.885Z,43.52
2022-08-03T19:42:46.577Z,43.64
2022-08-03T19:45:22.348Z,43.85
2022-08-03T19:48:14.407Z,43.76
2022-08-03T19:50:44.733Z,43.81
2022-08-03T19:53:15.128Z,44.18
2022-08-03T19:55:49.016Z,44.67
2022-08-03T19:58:24.555Z,44.77
2022-08-03T20:00:57.368Z,45.31
2022-08-03T20:03:42.984Z,45.85
2022-08-03T20:06:13.006Z,45.94
2022-08-03T20:08:51.426Z,46.09
2022-08-03T20:14:11.732Z,47.53
2022-08-03T20:16:42.738Z,48.02
2022-08-03T20:19:14.306Z,48.28
2022-08-03T20:21:46.205Z,48.36
2022-08-03T20:24:24.569Z,48.34
2022-08-03T20:26:58.159Z,48.30
2022-08-03T20:30:05.406Z,48.45
2022-08-03T20:32:29.852Z,48.13
2022-08-03T20:35:00.753Z,47.99
2022-08-03T20:37:30.515Z,47.77
2022-08-03T20:40:01.139Z,47.70
2022-08-03T20:42:29.603Z,47.81
2022-08-03T20:45:05.584Z,48.07
2022-08-03T20:47:50.677Z,47.56
2022-08-03T20:50:31.615Z,47.45
2022-08-03T20:53:02.573Z,47.41
2022-08-03T20:56:01.917Z,47.25
2022-08-03T20:58:31.929Z,47.31
2022-08-03T21:01:02.281Z,47.24
2022-08-03T21:03:41.136Z,47.02
2022-08-03T21:06:27.873Z,46.88
2022-08-03T21:09:04.067Z,47.06
2022-08-03T21:11:53.242Z,47.62
2022-08-03T21:13:03.677Z,46.69
2022-08-03T21:14:26.435Z,48.14
2022-08-03T21:16:56.953Z,48.65
2022-08-03T21:19:31.427Z,48.50
2022-08-03T21:22:00.899Z,48.80
2022-08-03T21:24:31.715Z,49.07
2022-08-03T21:27:02.080Z,48.99
2022-08-03T21:29:31.419Z,48.96
2022-08-03T21:32:00.965Z,48.71
2022-08-03T21:34:30.595Z,48.87
2022-08-03T21:36:59.048Z,48.90
2022-08-03T21:39:27.586Z,48.84
2022-08-03T21:41:56.307Z,49.22
2022-08-03T21:44:28.960Z,49.88
2022-08-03T21:46:59.407Z,50.50
2022-08-03T21:50:02.661Z,51.01
2022-08-03T21:52:21.996Z,51.52
2022-08-03T21:54:52.066Z,51.99
2022-08-03T21:57:24.007Z,51.87
2022-08-03T21:59:57.005Z,52.27
2022-08-03T22:02:31.446Z,51.97
2022-08-03T22:05:05.058Z,51.98
2022-08-03T22:07:34.435Z,52.40
2022-08-03T22:10:05.518Z,52.21
2022-08-03T22:12:34.920Z,52.83
2022-08-03T22:15:07.697Z,53.69
2022-08-03T22:17:54.573Z,53.83
2022-08-03T22:20:26.728Z,54.05
2022-08-03T22:22:57.301Z,54.00
2022-08-03T22:25:29.961Z,53.72
2022-08-03T22:28:00.556Z,53.53
2022-08-03T22:30:31.684Z,53.83
2022-08-03T22:33:02.432Z,54.18
2022-08-03T22:35:32.912Z,54.18
2022-08-03T22:38:16.610Z,54.53
2022-08-03T22:40:46.032Z,54.58
2022-08-03T22:43:14.844Z,54.83
2022-08-03T22:46:10.171Z,55.12
2022-08-03T22:48:41.013Z,54.99
2022-08-03T22:51:10.641Z,55.11
2022-08-03T22:53:40.736Z,55.07
2022-08-03T22:56:09.564Z,54.87
2022-08-03T22:58:38.284Z,54.85
2022-08-03T23:01:10.205Z,54.95
2022-08-03T23:03:58.827Z,54.98
2022-08-03T23:06:33.908Z,54.83
2022-08-03T23:09:04.604Z,54.85
2022-08-03T23:11:38.093Z,54.57
2022-08-03T23:14:13.277Z,54.14
2022-08-03T23:16:45.364Z,54.04
2022-08-03T23:19:17.315Z,54.04
2022-08-03T23:22:02.239Z,54.39
2022-08-03T23:24:34.516Z,54.70
2022-08-03T23:27:04.769Z,54.75
2022-08-03T23:29:35.894Z,54.86
2022-08-03T23:32:07.338Z,54.97
2022-08-03T23:34:58.167Z,55.22
2022-08-03T23:37:27.191Z,55.33
2022-08-03T23:39:58.081Z,55.52
2022-08-03T23:42:27.454Z,55.89
2022-08-03T23:44:59.443Z,55.94
2022-08-03T23:47:47.074Z,55.81
2022-08-03T23:50:16.505Z,56.36
2022-08-03T23:52:56.895Z,56.41
2022-08-03T23:55:38.430Z,56.89
2022-08-03T23:58:16.221Z,56.74
